Airport View

Enter AWOS ICAO identifier for current METAR.

ex. KFNL

KDYA 300515Z AUTO 27006KT 7SM OVC019 10/07 A3007 RMK AO2 T01010071

30 Oct 2020 05:09

Frequency: 119.475

Phone: 334-289-1466

Other Area AWOS: KA08 - KMEI - KTCL - KNJW

TAF KMEI 292321Z 3000/3024 29008KT P6SM SCT040 FM300300 30008KT P6SM BKN025 FM301300 36009KT P6SM SCT250